Time;durP1;ratioP1;P1;durP2;ratioP2;P2;SDS_P1;SDS_P2;PMS_P1;PMS_P2;Temp;Humidity;BMP_temperature;BMP_pressure;BME280_temperature;BME280_humidity;BME280_pressure;Samples;Min_cycle;Max_cycle;Signal;HPM_P1;HPM_P2
2021/07/29 00:01:30;;;;;;;7.40;3.22;;;;;;;;;;5070047;28;20024;-91
2021/07/29 00:03:56;;;;;;;6.53;3.15;;;;;;;;;;5091686;28;20024;-89
2021/07/29 00:06:21;;;;;;;9.93;3.67;;;;;;;;;;5091135;28;20107;-90
2021/07/29 00:08:46;;;;;;;5.73;3.17;;;;;;;;;;5070577;22;20412;-67
2021/07/29 00:11:16;;;;;;;9.20;4.13;;;;;;;;;;5050173;28;20264;-67
2021/07/29 00:13:41;;;;;;;8.13;3.35;;;;;;;;;;5043686;28;20307;-67
2021/07/29 00:16:06;;;;;;;8.37;3.90;;;;;;;;;;5052432;28;20060;-66
2021/07/29 00:21:16;;;;;;;9.57;3.50;;;;;;;;;;5052690;28;20067;-67
2021/07/29 00:23:41;;;;;;;9.63;3.70;;;;;;;;;;5051751;28;20025;-67
2021/07/29 00:26:07;;;;;;;8.10;3.70;;;;;;;;;;5052610;28;20027;-67
2021/07/29 00:28:33;;;;;;;7.90;3.97;;;;;;;;;;5051898;28;20028;-67
2021/07/29 00:30:58;;;;;;;8.20;3.93;;;;;;;;;;5051545;28;20025;-67
2021/07/29 00:33:23;;;;;;;10.15;4.63;;;;;;;;;;5051780;28;20287;-67
2021/07/29 00:35:48;;;;;;;11.87;4.00;;;;;;;;;;5052193;28;20028;-67
2021/07/29 00:38:14;;;;;;;14.18;4.13;;;;;;;;;;5052307;28;20248;-67
2021/07/29 00:40:39;;;;;;;10.23;4.70;;;;;;;;;;5052205;28;20021;-67
2021/07/29 00:43:04;;;;;;;12.02;4.55;;;;;;;;;;5052792;28;20797;-67
2021/07/29 00:45:29;;;;;;;7.53;4.47;;;;;;;;;;5052365;28;20025;-66
2021/07/29 00:47:54;;;;;;;12.75;5.13;;;;;;;;;;5052021;28;20029;-67
2021/07/29 00:50:20;;;;;;;11.23;4.70;;;;;;;;;;5051822;28;20099;-67
2021/07/29 00:52:47;;;;;;;13.55;6.10;;;;;;;;;;5052341;28;20389;-66
2021/07/29 00:55:13;;;;;;;13.27;5.25;;;;;;;;;;5051951;28;20038;-68
2021/07/29 00:57:38;;;;;;;11.00;6.28;;;;;;;;;;5051508;28;20037;-68
2021/07/29 01:00:04;;;;;;;9.40;5.43;;;;;;;;;;5051646;28;20096;-67
2021/07/29 01:02:29;;;;;;;14.90;5.70;;;;;;;;;;5049997;28;20020;-66
2021/07/29 01:04:55;;;;;;;11.77;6.10;;;;;;;;;;5050666;28;20025;-67
2021/07/29 01:07:20;;;;;;;9.82;4.43;;;;;;;;;;5051407;28;20439;-67
2021/07/29 01:09:45;;;;;;;10.87;4.77;;;;;;;;;;5051795;28;20025;-68
2021/07/29 01:12:11;;;;;;;9.73;4.80;;;;;;;;;;5051276;28;20291;-67
2021/07/29 01:14:36;;;;;;;17.20;6.77;;;;;;;;;;5051656;28;20802;-68
2021/07/29 01:17:01;;;;;;;17.85;7.85;;;;;;;;;;5051557;28;20616;-67
2021/07/29 01:19:27;;;;;;;18.83;7.07;;;;;;;;;;5036406;28;20362;-68
2021/07/29 01:21:53;;;;;;;22.35;6.90;;;;;;;;;;5051803;28;20036;-68
2021/07/29 01:24:19;;;;;;;21.25;8.00;;;;;;;;;;5051874;28;20100;-67
2021/07/29 01:26:44;;;;;;;22.23;8.52;;;;;;;;;;5051386;28;20032;-67
2021/07/29 01:29:09;;;;;;;16.92;7.45;;;;;;;;;;5050564;28;20017;-66
2021/07/29 01:31:34;;;;;;;16.10;6.85;;;;;;;;;;5051349;28;20440;-67
2021/07/29 01:33:59;;;;;;;8.95;4.85;;;;;;;;;;5049520;28;20455;-68
2021/07/29 01:36:25;;;;;;;9.57;4.43;;;;;;;;;;5050426;28;20024;-67
2021/07/29 01:38:50;;;;;;;16.58;4.85;;;;;;;;;;5051183;28;20720;-67
2021/07/29 01:41:15;;;;;;;8.87;4.33;;;;;;;;;;5033080;28;20457;-67
2021/07/29 01:43:40;;;;;;;8.32;5.28;;;;;;;;;;5051268;28;20264;-67
2021/07/29 01:46:05;;;;;;;10.27;4.60;;;;;;;;;;5051548;28;20047;-67
2021/07/29 01:48:31;;;;;;;9.73;5.00;;;;;;;;;;5051134;28;20031;-67
2021/07/29 01:50:57;;;;;;;6.78;3.60;;;;;;;;;;5049729;28;20033;-67
2021/07/29 01:53:22;;;;;;;10.00;4.00;;;;;;;;;;5050816;28;20029;-67
2021/07/29 01:55:48;;;;;;;7.15;3.55;;;;;;;;;;5050512;28;20657;-67
2021/07/29 01:58:14;;;;;;;10.55;3.70;;;;;;;;;;5050111;28;20461;-67
2021/07/29 02:00:41;;;;;;;8.13;3.78;;;;;;;;;;5050824;28;20377;-67
2021/07/29 02:03:06;;;;;;;15.10;3.70;;;;;;;;;;5050825;28;20029;-67
2021/07/29 02:05:32;;;;;;;8.13;3.60;;;;;;;;;;5050491;28;20476;-67
2021/07/29 02:07:57;;;;;;;10.65;3.78;;;;;;;;;;5030725;28;20099;-67
2021/07/29 02:10:23;;;;;;;8.63;3.70;;;;;;;;;;5050061;28;20059;-67
2021/07/29 02:12:48;;;;;;;11.77;3.38;;;;;;;;;;5050408;28;20059;-67
2021/07/29 02:15:13;;;;;;;11.27;3.78;;;;;;;;;;5050256;28;20028;-67
2021/07/29 02:17:39;;;;;;;6.78;3.25;;;;;;;;;;5050422;28;20556;-67
2021/07/29 02:20:04;;;;;;;7.90;3.90;;;;;;;;;;5050376;28;20096;-67
2021/07/29 02:22:30;;;;;;;10.07;4.05;;;;;;;;;;5039717;28;20124;-67
2021/07/29 02:24:55;;;;;;;5.88;3.50;;;;;;;;;;5050559;28;20051;-67
2021/07/29 02:27:23;;;;;;;10.25;3.55;;;;;;;;;;5050382;28;20083;-67
2021/07/29 02:29:48;;;;;;;8.35;4.10;;;;;;;;;;5049852;28;20025;-67
2021/07/29 02:32:14;;;;;;;9.37;3.63;;;;;;;;;;5049907;28;20029;-67
2021/07/29 02:34:39;;;;;;;8.03;4.00;;;;;;;;;;5050547;28;20263;-67
2021/07/29 02:37:04;;;;;;;7.37;3.40;;;;;;;;;;5049941;28;20271;-67
2021/07/29 02:39:29;;;;;;;7.73;3.33;;;;;;;;;;5043314;28;20273;-67
2021/07/29 02:41:54;;;;;;;11.80;3.43;;;;;;;;;;5050576;28;20275;-67
2021/07/29 02:44:19;;;;;;;13.23;3.78;;;;;;;;;;5049861;28;20306;-67
2021/07/29 02:46:45;;;;;;;8.68;4.00;;;;;;;;;;5034035;28;20115;-67
2021/07/29 02:49:10;;;;;;;9.97;3.63;;;;;;;;;;5049612;28;20027;-67
2021/07/29 02:51:35;;;;;;;9.70;3.40;;;;;;;;;;5050148;28;20723;-66
2021/07/29 02:54:00;;;;;;;7.37;3.37;;;;;;;;;;5048865;28;20260;-67
2021/07/29 02:56:25;;;;;;;4.47;2.93;;;;;;;;;;5049182;28;20259;-67
2021/07/29 02:58:50;;;;;;;11.07;4.27;;;;;;;;;;5049796;28;20275;-67
2021/07/29 03:01:16;;;;;;;5.30;3.23;;;;;;;;;;5049645;28;20627;-67
2021/07/29 03:03:44;;;;;;;8.85;3.90;;;;;;;;;;5050277;28;20262;-67
2021/07/29 03:06:10;;;;;;;11.32;4.43;;;;;;;;;;5050000;28;20444;-67
2021/07/29 03:08:36;;;;;;;9.88;3.72;;;;;;;;;;5050277;28;20424;-67
2021/07/29 03:11:01;;;;;;;12.75;4.18;;;;;;;;;;5049680;28;20086;-67
2021/07/29 03:13:26;;;;;;;16.20;4.90;;;;;;;;;;5049594;28;20388;-67
2021/07/29 03:15:52;;;;;;;4.93;3.25;;;;;;;;;;5050191;28;20259;-67
2021/07/29 03:18:17;;;;;;;9.68;3.67;;;;;;;;;;5046358;28;20521;-67
2021/07/29 03:20:42;;;;;;;8.95;4.32;;;;;;;;;;5049981;28;20189;-67
2021/07/29 03:23:08;;;;;;;13.80;4.60;;;;;;;;;;5049495;28;20035;-67
2021/07/29 03:25:34;;;;;;;15.50;4.13;;;;;;;;;;5046042;28;20028;-66
2021/07/29 03:27:59;;;;;;;10.93;4.50;;;;;;;;;;5042306;28;20028;-67
2021/07/29 03:30:24;;;;;;;17.10;4.50;;;;;;;;;;5047843;28;20444;-66
2021/07/29 03:32:49;;;;;;;8.03;4.40;;;;;;;;;;5034540;28;20037;-67
2021/07/29 03:35:14;;;;;;;14.10;5.60;;;;;;;;;;5046346;28;20355;-67
2021/07/29 03:37:40;;;;;;;9.95;4.93;;;;;;;;;;5047218;28;20033;-67
2021/07/29 03:40:05;;;;;;;10.07;5.78;;;;;;;;;;5047132;28;20032;-67
2021/07/29 03:42:31;;;;;;;16.58;5.10;;;;;;;;;;5047624;28;20295;-66
2021/07/29 03:44:57;;;;;;;12.88;6.00;;;;;;;;;;5046997;28;20029;-67
2021/07/29 03:47:22;;;;;;;12.48;4.30;;;;;;;;;;5047387;28;20492;-67
2021/07/29 03:49:47;;;;;;;10.00;5.63;;;;;;;;;;5047121;28;20029;-67
2021/07/29 03:52:13;;;;;;;12.27;5.20;;;;;;;;;;5047713;28;20753;-67
2021/07/29 03:54:38;;;;;;;12.43;4.95;;;;;;;;;;5047800;28;20294;-66
2021/07/29 03:57:03;;;;;;;9.70;5.03;;;;;;;;;;5047552;28;20397;-67
2021/07/29 03:59:28;;;;;;;10.13;5.00;;;;;;;;;;5049795;28;20025;-67
2021/07/29 04:01:54;;;;;;;17.47;5.50;;;;;;;;;;5050436;28;20111;-67
2021/07/29 04:04:19;;;;;;;9.80;5.15;;;;;;;;;;5051564;28;20703;-67
2021/07/29 04:06:44;;;;;;;16.03;5.90;;;;;;;;;;5049503;28;20122;-67
2021/07/29 04:09:10;;;;;;;10.33;5.50;;;;;;;;;;5054664;28;20459;-67
2021/07/29 04:11:35;;;;;;;12.45;5.82;;;;;;;;;;5052258;28;20282;-67
2021/07/29 04:14:00;;;;;;;9.73;4.85;;;;;;;;;;5034909;28;20025;-67
2021/07/29 04:16:26;;;;;;;12.20;5.93;;;;;;;;;;5052420;28;20017;-67
2021/07/29 04:18:51;;;;;;;12.07;5.93;;;;;;;;;;5052471;28;20024;-67
2021/07/29 04:21:16;;;;;;;11.67;6.20;;;;;;;;;;5051398;28;20771;-67
2021/07/29 04:23:41;;;;;;;10.40;5.72;;;;;;;;;;5051041;28;20295;-67
2021/07/29 04:26:07;;;;;;;14.02;6.55;;;;;;;;;;5048594;28;20370;-67
2021/07/29 04:28:32;;;;;;;10.70;6.60;;;;;;;;;;5051400;28;20462;-67
2021/07/29 04:30:57;;;;;;;9.70;6.60;;;;;;;;;;5053048;28;20337;-66
2021/07/29 04:33:22;;;;;;;16.35;5.90;;;;;;;;;;5052280;28;20286;-67
2021/07/29 04:35:47;;;;;;;13.55;4.75;;;;;;;;;;5052470;28;20067;-67
2021/07/29 04:38:13;;;;;;;11.50;5.43;;;;;;;;;;5050733;28;20013;-67
2021/07/29 04:40:38;;;;;;;12.65;5.90;;;;;;;;;;5052687;28;20021;-67
2021/07/29 04:43:03;;;;;;;10.35;5.45;;;;;;;;;;5052435;28;20094;-67
2021/07/29 04:45:28;;;;;;;12.55;6.18;;;;;;;;;;5052519;28;20057;-67
2021/07/29 04:47:53;;;;;;;10.48;5.60;;;;;;;;;;5051972;28;20060;-67
2021/07/29 04:50:19;;;;;;;11.82;5.60;;;;;;;;;;5052529;28;20167;-66
2021/07/29 04:52:44;;;;;;;13.60;6.47;;;;;;;;;;5051626;28;20108;-67
2021/07/29 04:55:09;;;;;;;14.90;5.63;;;;;;;;;;5044659;28;20740;-67
2021/07/29 04:57:34;;;;;;;15.38;4.70;;;;;;;;;;5052333;28;20102;-67
2021/07/29 05:00:00;;;;;;;10.23;3.53;;;;;;;;;;5051481;28;20203;-67
2021/07/29 05:02:25;;;;;;;7.85;3.83;;;;;;;;;;5051980;28;20592;-66
2021/07/29 05:04:50;;;;;;;15.33;4.40;;;;;;;;;;5051631;28;20282;-67
2021/07/29 05:07:15;;;;;;;12.27;4.83;;;;;;;;;;5051573;28;20268;-67
2021/07/29 05:09:40;;;;;;;11.35;4.78;;;;;;;;;;5050631;28;20686;-67
2021/07/29 05:12:06;;;;;;;11.00;4.80;;;;;;;;;;5051014;28;20432;-67
2021/07/29 05:14:31;;;;;;;9.90;4.05;;;;;;;;;;5049461;28;20275;-66
2021/07/29 05:17:00;;;;;;;13.35;4.68;;;;;;;;;;5049441;28;20025;-67
2021/07/29 05:19:25;;;;;;;10.93;4.28;;;;;;;;;;5048788;28;20029;-67
2021/07/29 05:21:50;;;;;;;12.82;4.70;;;;;;;;;;5048803;28;20428;-67
2021/07/29 05:24:16;;;;;;;17.23;4.63;;;;;;;;;;5049233;28;20029;-67
2021/07/29 05:26:42;;;;;;;12.50;5.17;;;;;;;;;;5046901;28;20087;-67
2021/07/29 05:29:07;;;;;;;15.90;4.45;;;;;;;;;;5046682;28;20282;-66
2021/07/29 05:31:32;;;;;;;9.87;4.40;;;;;;;;;;5049632;28;20029;-67
2021/07/29 05:33:58;;;;;;;15.23;4.10;;;;;;;;;;5043558;28;21042;-67
2021/07/29 05:36:23;;;;;;;9.85;3.63;;;;;;;;;;5048951;28;20036;-67
2021/07/29 05:38:48;;;;;;;11.45;3.88;;;;;;;;;;5049386;28;20017;-67
2021/07/29 05:41:14;;;;;;;13.73;4.60;;;;;;;;;;5048903;28;20131;-66
2021/07/29 05:43:39;;;;;;;14.87;4.67;;;;;;;;;;5047892;28;20128;-66
2021/07/29 05:46:12;;;;;;;10.23;5.93;;;;;;;;;;5035449;28;20287;-67
2021/07/29 05:48:38;;;;;;;10.57;5.20;;;;;;;;;;5047080;28;20059;-67
2021/07/29 05:51:03;;;;;;;18.20;5.90;;;;;;;;;;5049439;28;20055;-67
2021/07/29 05:53:29;;;;;;;10.43;3.92;;;;;;;;;;5044801;28;20064;-67
2021/07/29 05:55:57;;;;;;;9.90;4.28;;;;;;;;;;5050797;28;20224;-67
2021/07/29 05:58:22;;;;;;;11.15;3.78;;;;;;;;;;5050476;28;20096;-67
2021/07/29 06:00:48;;;;;;;13.18;4.28;;;;;;;;;;5048631;28;20124;-66
2021/07/29 06:03:13;;;;;;;10.25;3.65;;;;;;;;;;5044887;28;20020;-66
2021/07/29 06:05:38;;;;;;;11.90;3.30;;;;;;;;;;5050820;28;20420;-67
2021/07/29 06:08:03;;;;;;;10.73;3.20;;;;;;;;;;5049897;28;20268;-67
2021/07/29 06:10:29;;;;;;;9.43;3.10;;;;;;;;;;5048310;28;20534;-67
2021/07/29 06:12:54;;;;;;;7.37;2.83;;;;;;;;;;5050611;28;20495;-66
2021/07/29 06:15:19;;;;;;;9.33;2.90;;;;;;;;;;5049158;28;20266;-67
2021/07/29 06:17:48;;;;;;;13.65;3.08;;;;;;;;;;5050164;28;20248;-66
2021/07/29 06:20:13;;;;;;;13.55;3.30;;;;;;;;;;5050539;28;20063;-66
2021/07/29 06:22:38;;;;;;;7.55;3.03;;;;;;;;;;5049635;28;20017;-67
2021/07/29 06:25:08;;;;;;;10.17;3.03;;;;;;;;;;5050882;28;20382;-67
2021/07/29 06:27:34;;;;;;;6.38;3.13;;;;;;;;;;5050631;28;20698;-68
2021/07/29 06:29:59;;;;;;;12.30;2.40;;;;;;;;;;5050750;28;20041;-67
2021/07/29 06:32:24;;;;;;;7.40;2.63;;;;;;;;;;5050598;28;20060;-67
2021/07/29 06:34:50;;;;;;;9.93;2.90;;;;;;;;;;5050368;28;20262;-67
2021/07/29 06:37:15;;;;;;;7.65;2.15;;;;;;;;;;5049360;28;20268;-67
2021/07/29 06:39:40;;;;;;;6.13;2.25;;;;;;;;;;5057505;28;20016;-67
2021/07/29 06:42:06;;;;;;;8.27;2.28;;;;;;;;;;5050419;28;20501;-66
2021/07/29 06:44:31;;;;;;;10.35;3.60;;;;;;;;;;5050161;28;20075;-67
2021/07/29 06:46:56;;;;;;;10.40;3.53;;;;;;;;;;5050099;28;20055;-67
2021/07/29 06:49:26;;;;;;;9.37;2.20;;;;;;;;;;5050079;28;20287;-67
2021/07/29 06:51:51;;;;;;;12.20;3.00;;;;;;;;;;5049568;28;20314;-66
2021/07/29 06:54:16;;;;;;;7.40;2.07;;;;;;;;;;5049031;28;20052;-67
2021/07/29 06:56:43;;;;;;;11.23;2.03;;;;;;;;;;5045394;28;20461;-66
2021/07/29 06:59:08;;;;;;;9.48;2.45;;;;;;;;;;5052657;28;20025;-67
2021/07/29 07:01:33;;;;;;;11.03;2.23;;;;;;;;;;5050084;28;20024;-67
2021/07/29 07:03:59;;;;;;;11.88;2.58;;;;;;;;;;5049966;28;20656;-67
2021/07/29 07:06:24;;;;;;;8.93;2.07;;;;;;;;;;5049955;28;20156;-67
2021/07/29 07:08:49;;;;;;;13.20;1.87;;;;;;;;;;5052159;28;20271;-67
2021/07/29 07:11:15;;;;;;;9.20;2.33;;;;;;;;;;5048935;28;20766;-67
2021/07/29 07:13:40;;;;;;;8.32;2.00;;;;;;;;;;5049986;28;20031;-67
2021/07/29 07:16:05;;;;;;;8.53;2.70;;;;;;;;;;5049992;28;20048;-67
2021/07/29 07:18:30;;;;;;;8.37;2.30;;;;;;;;;;5048882;28;20285;-67
2021/07/29 07:21:02;;;;;;;11.57;2.03;;;;;;;;;;5043113;28;20635;-67
2021/07/29 07:23:27;;;;;;;8.15;1.70;;;;;;;;;;5048311;28;20278;-66
2021/07/29 07:25:52;;;;;;;13.40;2.00;;;;;;;;;;5048443;28;20036;-67
2021/07/29 07:28:18;;;;;;;8.50;2.10;;;;;;;;;;5049602;28;20091;-67
2021/07/29 07:30:43;;;;;;;8.47;1.63;;;;;;;;;;5049116;28;20029;-67
2021/07/29 07:33:08;;;;;;;7.37;1.73;;;;;;;;;;5050575;28;20032;-67
2021/07/29 07:35:33;;;;;;;9.40;2.00;;;;;;;;;;5053133;28;20028;-67
2021/07/29 07:37:58;;;;;;;6.83;1.67;;;;;;;;;;5053295;28;20324;-67
2021/07/29 07:40:23;;;;;;;13.63;1.93;;;;;;;;;;5049224;28;20264;-68
2021/07/29 07:42:50;;;;;;;6.60;1.77;;;;;;;;;;5052838;28;20739;-67
2021/07/29 07:45:15;;;;;;;8.65;1.48;;;;;;;;;;5052998;28;20632;-67
2021/07/29 07:47:40;;;;;;;8.63;2.10;;;;;;;;;;5051786;28;20032;-67
2021/07/29 07:50:05;;;;;;;9.52;1.83;;;;;;;;;;5053520;28;20295;-67
2021/07/29 07:52:31;;;;;;;8.63;1.88;;;;;;;;;;5053285;28;20025;-67
2021/07/29 07:54:57;;;;;;;13.77;2.70;;;;;;;;;;5045735;28;20030;-67
2021/07/29 07:57:22;;;;;;;11.35;2.30;;;;;;;;;;5040940;28;20263;-67
2021/07/29 07:59:50;;;;;;;9.90;3.27;;;;;;;;;;5052520;28;20036;-68
2021/07/29 08:02:15;;;;;;;3.63;0.80;;;;;;;;;;5057179;28;20020;-67
2021/07/29 08:04:40;;;;;;;11.93;1.58;;;;;;;;;;5058628;28;20074;-68
2021/07/29 08:07:05;;;;;;;10.60;1.80;;;;;;;;;;5034658;28;20025;-66
2021/07/29 08:09:30;;;;;;;9.13;1.85;;;;;;;;;;5040377;28;20581;-68
2021/07/29 08:11:56;;;;;;;7.33;1.70;;;;;;;;;;5045154;28;20035;-67
2021/07/29 08:14:21;;;;;;;11.38;1.85;;;;;;;;;;5052817;28;20256;-68
2021/07/29 08:16:46;;;;;;;18.17;2.27;;;;;;;;;;5051950;28;20108;-67
2021/07/29 08:19:11;;;;;;;8.33;1.63;;;;;;;;;;5052902;28;20025;-68
2021/07/29 08:21:36;;;;;;;7.10;2.07;;;;;;;;;;5051731;28;20111;-68
2021/07/29 08:24:02;;;;;;;4.93;1.57;;;;;;;;;;5053136;28;20243;-68
2021/07/29 08:26:27;;;;;;;5.57;1.55;;;;;;;;;;5051437;28;20469;-68
2021/07/29 08:28:53;;;;;;;5.82;1.38;;;;;;;;;;5046876;28;20308;-68
2021/07/29 08:31:18;;;;;;;5.60;1.30;;;;;;;;;;5051618;28;20103;-68
2021/07/29 08:33:43;;;;;;;9.68;1.50;;;;;;;;;;5052344;28;20025;-67
2021/07/29 08:36:16;;;;;;;6.23;0.97;;;;;;;;;;5052759;28;20030;-68
2021/07/29 08:38:41;;;;;;;6.68;1.35;;;;;;;;;;5052345;28;20271;-68
2021/07/29 08:41:07;;;;;;;6.10;1.50;;;;;;;;;;5052690;28;20040;-68
2021/07/29 08:43:33;;;;;;;9.27;2.33;;;;;;;;;;5052063;28;20040;-68
2021/07/29 08:45:58;;;;;;;4.80;1.23;;;;;;;;;;5048398;28;20032;-68
2021/07/29 08:48:27;;;;;;;6.65;2.10;;;;;;;;;;5052023;28;20040;-68
2021/07/29 08:50:52;;;;;;;7.32;2.00;;;;;;;;;;5052287;28;20047;-67
2021/07/29 08:53:18;;;;;;;7.47;1.95;;;;;;;;;;5051765;28;20029;-68
2021/07/29 08:55:46;;;;;;;6.13;1.40;;;;;;;;;;5050282;28;20017;-67
2021/07/29 08:58:12;;;;;;;9.75;2.10;;;;;;;;;;5052210;28;20009;-67
2021/07/29 09:00:37;;;;;;;10.70;1.65;;;;;;;;;;5051777;28;20021;-68
2021/07/29 09:03:18;;;;;;;12.88;1.85;;;;;;;;;;5050894;28;20086;-68
2021/07/29 09:05:57;;;;;;;6.82;1.63;;;;;;;;;;5034049;28;20027;-68
2021/07/29 09:08:23;;;;;;;5.30;1.50;;;;;;;;;;5051087;28;20012;-67
2021/07/29 09:10:48;;;;;;;8.85;2.13;;;;;;;;;;5048249;28;20033;-68
2021/07/29 09:13:18;;;;;;;3.80;1.52;;;;;;;;;;5052170;28;20150;-68
2021/07/29 09:15:44;;;;;;;7.35;1.48;;;;;;;;;;5047421;28;20397;-67
2021/07/29 09:18:09;;;;;;;7.57;1.60;;;;;;;;;;5032045;28;20381;-67
2021/07/29 09:20:35;;;;;;;7.97;1.73;;;;;;;;;;5050457;28;20024;-68
2021/07/29 09:23:17;;;;;;;7.82;1.73;;;;;;;;;;5052444;28;20032;-69
2021/07/29 09:25:43;;;;;;;3.00;1.10;;;;;;;;;;5023195;28;20035;-68
2021/07/29 09:28:08;;;;;;;5.70;2.70;;;;;;;;;;5059258;28;20016;-68
2021/07/29 09:30:33;;;;;;;6.80;1.52;;;;;;;;;;5055256;28;20495;-68
2021/07/29 09:33:07;;;;;;;6.53;1.88;;;;;;;;;;5066822;28;20316;-68
2021/07/29 09:35:42;;;;;;;6.05;1.88;;;;;;;;;;5051583;28;20466;-68
2021/07/29 09:38:27;;;;;;;4.80;1.52;;;;;;;;;;5051055;28;20401;-67
2021/07/29 09:40:52;;;;;;;9.57;1.80;;;;;;;;;;5053265;28;20036;-68
2021/07/29 09:43:19;;;;;;;6.93;1.40;;;;;;;;;;5050755;28;20019;-68
2021/07/29 09:45:45;;;;;;;4.45;1.40;;;;;;;;;;5048885;28;20298;-67
2021/07/29 09:48:11;;;;;;;6.95;1.30;;;;;;;;;;5065984;28;20020;-68
2021/07/29 09:50:37;;;;;;;8.63;1.90;;;;;;;;;;5058710;28;20029;-68
2021/07/29 09:53:02;;;;;;;5.82;1.50;;;;;;;;;;5046285;28;20025;-68
2021/07/29 09:55:29;;;;;;;4.13;1.55;;;;;;;;;;5046784;28;20063;-68
2021/07/29 09:57:54;;;;;;;10.63;2.05;;;;;;;;;;5050830;28;20100;-68
2021/07/29 10:00:19;;;;;;;6.65;1.77;;;;;;;;;;5051298;28;20473;-68
2021/07/29 10:02:46;;;;;;;11.93;2.33;;;;;;;;;;5047110;28;20036;-67
2021/07/29 10:05:13;;;;;;;5.90;1.92;;;;;;;;;;5047310;28;20290;-68
2021/07/29 10:07:39;;;;;;;8.52;1.90;;;;;;;;;;5050061;28;20025;-68
2021/07/29 10:10:05;;;;;;;9.98;2.15;;;;;;;;;;5032404;28;20041;-68
2021/07/29 10:12:31;;;;;;;10.73;1.83;;;;;;;;;;5050349;28;20025;-67
2021/07/29 10:14:57;;;;;;;6.78;2.15;;;;;;;;;;5050720;28;20024;-67
2021/07/29 10:17:34;;;;;;;6.85;1.60;;;;;;;;;;5050394;28;20013;-68
2021/07/29 10:20:26;;;;;;;3.72;1.02;;;;;;;;;;5050048;28;20043;-66
2021/07/29 10:23:10;;;;;;;12.15;1.45;;;;;;;;;;5026916;28;20052;-68
2021/07/29 10:25:54;;;;;;;13.35;1.98;;;;;;;;;;5044406;28;20029;-67
2021/07/29 10:28:21;;;;;;;10.20;1.70;;;;;;;;;;5050565;28;20027;-68
2021/07/29 10:31:05;;;;;;;7.68;1.70;;;;;;;;;;5049960;28;20044;-67
2021/07/29 10:33:30;;;;;;;6.68;1.52;;;;;;;;;;5048158;28;20021;-68
2021/07/29 10:35:57;;;;;;;19.10;2.20;;;;;;;;;;5049639;28;20496;-66
2021/07/29 10:38:40;;;;;;;7.43;1.40;;;;;;;;;;5049176;28;20550;-67
2021/07/29 10:41:08;;;;;;;11.13;1.33;;;;;;;;;;5048581;28;20304;-67
2021/07/29 10:43:38;;;;;;;5.65;1.20;;;;;;;;;;5049685;28;20457;-67
2021/07/29 10:46:03;;;;;;;10.63;1.60;;;;;;;;;;5050209;28;20124;-68
2021/07/29 10:48:41;;;;;;;8.77;1.52;;;;;;;;;;5049301;28;20430;-68
2021/07/29 10:51:10;;;;;;;8.10;2.55;;;;;;;;;;5041358;28;20099;-67
2021/07/29 10:53:36;;;;;;;10.73;2.00;;;;;;;;;;5049466;28;20027;-68
2021/07/29 10:56:01;;;;;;;8.27;1.50;;;;;;;;;;5049587;28;20017;-67
2021/07/29 10:58:26;;;;;;;9.73;1.70;;;;;;;;;;5049199;28;20097;-68
2021/07/29 11:00:52;;;;;;;6.13;1.50;;;;;;;;;;5048421;28;20275;-68
2021/07/29 11:03:21;;;;;;;9.68;1.88;;;;;;;;;;5049842;28;20291;-67
2021/07/29 11:05:52;;;;;;;6.95;1.38;;;;;;;;;;5029880;28;20029;-67
2021/07/29 11:08:24;;;;;;;5.13;1.38;;;;;;;;;;5038007;28;20465;-68
2021/07/29 11:10:50;;;;;;;13.48;1.40;;;;;;;;;;5049012;28;20517;-68
2021/07/29 11:13:15;;;;;;;7.35;1.95;;;;;;;;;;5049906;28;20050;-68
2021/07/29 11:15:40;;;;;;;6.93;1.40;;;;;;;;;;5049757;28;20021;-67
2021/07/29 11:18:11;;;;;;;6.38;1.80;;;;;;;;;;5049610;28;20028;-67
2021/07/29 11:20:36;;;;;;;8.68;1.88;;;;;;;;;;5030792;28;20496;-68
2021/07/29 11:23:02;;;;;;;4.82;1.95;;;;;;;;;;5049878;28;20029;-68
2021/07/29 11:25:27;;;;;;;12.52;1.70;;;;;;;;;;5049145;28;20029;-68
2021/07/29 11:27:52;;;;;;;6.25;1.75;;;;;;;;;;5048587;28;20067;-68
2021/07/29 11:30:17;;;;;;;11.00;2.00;;;;;;;;;;5050047;28;20491;-66
2021/07/29 11:32:45;;;;;;;10.63;1.73;;;;;;;;;;5048710;28;20319;-68
2021/07/29 11:35:12;;;;;;;6.07;1.48;;;;;;;;;;5048293;28;20116;-67
2021/07/29 11:37:41;;;;;;;5.80;1.40;;;;;;;;;;5047739;28;20048;-67
2021/07/29 11:40:07;;;;;;;5.70;1.40;;;;;;;;;;5049040;28;20024;-67
2021/07/29 11:42:36;;;;;;;7.55;1.65;;;;;;;;;;5049332;28;20255;-67
2021/07/29 11:45:02;;;;;;;16.23;3.95;;;;;;;;;;5044828;28;20032;-67
2021/07/29 11:47:37;;;;;;;9.30;1.95;;;;;;;;;;5054136;28;20017;-68
2021/07/29 11:50:03;;;;;;;14.82;2.92;;;;;;;;;;5037048;28;20045;-67
2021/07/29 11:52:28;;;;;;;6.82;1.48;;;;;;;;;;5043313;28;20024;-68
2021/07/29 11:55:14;;;;;;;8.43;1.60;;;;;;;;;;5031626;28;20513;-68
2021/07/29 11:57:39;;;;;;;7.93;1.77;;;;;;;;;;5040062;28;20013;-67
2021/07/29 12:00:05;;;;;;;13.20;1.80;;;;;;;;;;5063128;28;20066;-68
2021/07/29 12:02:30;;;;;;;8.43;1.60;;;;;;;;;;5048182;28;20021;-66
2021/07/29 12:04:56;;;;;;;5.32;1.70;;;;;;;;;;5049273;28;20087;-68
2021/07/29 12:07:21;;;;;;;9.88;1.88;;;;;;;;;;5047285;28;20019;-67
2021/07/29 12:09:47;;;;;;;11.93;2.00;;;;;;;;;;5047272;28;20098;-67
2021/07/29 12:12:12;;;;;;;4.65;1.75;;;;;;;;;;5048937;28;20045;-67
2021/07/29 12:14:42;;;;;;;12.15;1.90;;;;;;;;;;5049538;28;20017;-67
2021/07/29 12:17:17;;;;;;;5.55;1.27;;;;;;;;;;5048853;28;20033;-66
2021/07/29 12:19:53;;;;;;;7.50;1.60;;;;;;;;;;5046629;28;20051;-67
2021/07/29 12:22:22;;;;;;;3.95;1.25;;;;;;;;;;5052751;28;20367;-67
2021/07/29 12:24:47;;;;;;;5.88;1.58;;;;;;;;;;5052751;28;20032;-67
2021/07/29 12:27:12;;;;;;;9.90;2.03;;;;;;;;;;5052312;28;20350;-67
2021/07/29 12:29:41;;;;;;;7.18;1.90;;;;;;;;;;5051697;28;20021;-67
2021/07/29 12:32:21;;;;;;;4.63;1.40;;;;;;;;;;5052217;28;20127;-66
2021/07/29 12:34:47;;;;;;;8.02;1.60;;;;;;;;;;5052543;28;20021;-67
2021/07/29 12:37:12;;;;;;;6.47;1.85;;;;;;;;;;5038056;28;20788;-66
2021/07/29 12:39:40;;;;;;;7.80;1.60;;;;;;;;;;5047489;28;20012;-67
2021/07/29 12:42:24;;;;;;;10.80;1.92;;;;;;;;;;5057969;28;20299;-66
2021/07/29 12:44:56;;;;;;;6.70;1.80;;;;;;;;;;5056799;28;20425;-67
2021/07/29 12:47:21;;;;;;;13.35;2.17;;;;;;;;;;5052749;28;20031;-67
2021/07/29 12:49:46;;;;;;;4.63;1.75;;;;;;;;;;5048256;28;20407;-67
2021/07/29 12:52:21;;;;;;;9.17;2.33;;;;;;;;;;5041460;28;20098;-67
2021/07/29 12:55:16;;;;;;;6.65;1.60;;;;;;;;;;5045300;28;20691;-67
2021/07/29 12:57:51;;;;;;;9.70;1.67;;;;;;;;;;5042437;28;20041;-67
2021/07/29 13:00:17;;;;;;;7.78;1.60;;;;;;;;;;5052172;28;20017;-67
2021/07/29 13:02:42;;;;;;;7.07;1.45;;;;;;;;;;5060381;28;20407;-66
2021/07/29 13:05:07;;;;;;;7.40;1.70;;;;;;;;;;5064229;28;20033;-67
2021/07/29 13:07:32;;;;;;;10.50;1.23;;;;;;;;;;5051813;28;20029;-67
2021/07/29 13:09:58;;;;;;;2.73;1.07;;;;;;;;;;5051483;28;20033;-67
2021/07/29 13:12:23;;;;;;;6.43;1.90;;;;;;;;;;5051691;28;20021;-67
2021/07/29 13:14:48;;;;;;;8.20;1.57;;;;;;;;;;5051794;28;20074;-67
2021/07/29 13:17:13;;;;;;;8.10;1.60;;;;;;;;;;5051590;28;20256;-67
2021/07/29 13:19:38;;;;;;;6.03;2.20;;;;;;;;;;5051297;28;20017;-67
2021/07/29 13:22:04;;;;;;;12.73;2.03;;;;;;;;;;5049513;28;20033;-67
2021/07/29 13:24:29;;;;;;;7.53;1.90;;;;;;;;;;5051848;28;20136;-67
2021/07/29 13:26:54;;;;;;;7.43;1.93;;;;;;;;;;5035362;28;20112;-67
2021/07/29 13:29:19;;;;;;;11.47;1.73;;;;;;;;;;5039625;28;20740;-67
2021/07/29 13:31:44;;;;;;;11.43;2.23;;;;;;;;;;5050942;28;20298;-67
2021/07/29 13:34:10;;;;;;;6.43;1.55;;;;;;;;;;5051513;28;20372;-67
2021/07/29 13:36:35;;;;;;;11.45;1.67;;;;;;;;;;5051638;28;20072;-67
2021/07/29 13:39:00;;;;;;;9.00;1.70;;;;;;;;;;5049604;28;20025;-65
2021/07/29 13:41:26;;;;;;;9.25;2.28;;;;;;;;;;5040396;28;20664;-67
2021/07/29 13:43:52;;;;;;;6.40;1.90;;;;;;;;;;5051039;28;20047;-67
2021/07/29 13:46:17;;;;;;;8.18;1.40;;;;;;;;;;5051319;28;20117;-67
2021/07/29 13:48:42;;;;;;;8.77;2.20;;;;;;;;;;5051150;28;20056;-67
2021/07/29 13:51:09;;;;;;;5.00;1.65;;;;;;;;;;5051000;28;20347;-67
2021/07/29 13:53:34;;;;;;;9.85;2.25;;;;;;;;;;5050876;28;20364;-67
2021/07/29 13:56:00;;;;;;;8.30;1.77;;;;;;;;;;5042546;28;20017;-67
2021/07/29 13:58:25;;;;;;;10.93;1.60;;;;;;;;;;5037188;28;20026;-67
2021/07/29 14:00:50;;;;;;;10.53;2.10;;;;;;;;;;5050541;28;20290;-67
2021/07/29 14:03:15;;;;;;;8.18;1.90;;;;;;;;;;5051131;28;20740;-66
2021/07/29 14:05:42;;;;;;;9.10;1.70;;;;;;;;;;5050462;28;20021;-67
2021/07/29 14:08:08;;;;;;;3.90;1.52;;;;;;;;;;5050112;28;20310;-67
2021/07/29 14:10:34;;;;;;;13.77;2.17;;;;;;;;;;5038154;28;20630;-67
2021/07/29 14:12:59;;;;;;;8.23;1.47;;;;;;;;;;5036905;28;20124;-67
2021/07/29 14:15:24;;;;;;;18.48;2.70;;;;;;;;;;5050351;28;20264;-67
2021/07/29 14:23:00;;;;;;;8.05;1.70;;;;;;;;;;5056367;28;20024;-67
2021/07/29 14:25:28;;;;;;;7.85;1.42;;;;;;;;;;5048473;28;20059;-67
2021/07/29 14:27:53;;;;;;;5.93;1.25;;;;;;;;;;5030333;28;20148;-67
2021/07/29 14:30:19;;;;;;;9.00;1.52;;;;;;;;;;5050051;28;20439;-67
2021/07/29 14:32:44;;;;;;;12.25;2.05;;;;;;;;;;5050421;28;20017;-66
2021/07/29 14:35:09;;;;;;;6.90;1.67;;;;;;;;;;5049754;28;20028;-67
2021/07/29 14:37:34;;;;;;;4.93;1.55;;;;;;;;;;5050057;28;20272;-65
2021/07/29 14:40:00;;;;;;;10.10;2.50;;;;;;;;;;5049675;28;20021;-67
2021/07/29 14:42:25;;;;;;;5.95;1.30;;;;;;;;;;5046051;28;20029;-66